createdAt,value
2022-09-26T00:01:43.734Z,85.40
2022-09-26T00:04:21.031Z,85.31
2022-09-26T00:06:52.626Z,85.17
2022-09-26T00:09:21.873Z,85.32
2022-09-26T00:11:50.466Z,85.65
2022-09-26T00:14:22.013Z,85.96
2022-09-26T00:16:50.980Z,85.84
2022-09-26T00:19:20.102Z,85.64
2022-09-26T00:21:48.888Z,85.20
2022-09-26T00:24:17.954Z,85.19
2022-09-26T00:26:46.774Z,85.37
2022-09-26T00:29:15.797Z,85.58
2022-09-26T00:31:46.974Z,85.66
2022-09-26T00:34:17.682Z,85.53
2022-09-26T00:36:46.592Z,85.40
2022-09-26T00:39:17.008Z,85.57
2022-09-26T00:41:45.983Z,85.82
2022-09-26T00:44:45.400Z,86.03
2022-09-26T00:47:39.146Z,85.73
2022-09-26T00:50:15.682Z,85.74
2022-09-26T00:52:49.590Z,86.12
2022-09-26T00:55:21.515Z,85.95
2022-09-26T00:57:58.562Z,85.61
2022-09-26T01:00:27.159Z,85.84
2022-09-26T01:02:56.295Z,85.89
2022-09-26T01:05:25.817Z,85.70
2022-09-26T01:07:57.510Z,85.85
2022-09-26T01:10:29.162Z,85.92
2022-09-26T01:12:59.533Z,85.99
2022-09-26T01:15:29.616Z,85.89
2022-09-26T01:17:58.300Z,86.01
2022-09-26T01:20:33.479Z,86.02
2022-09-26T01:23:41.275Z,86.05
2022-09-26T01:26:34.549Z,86.12
2022-09-26T01:29:42.637Z,86.29
2022-09-26T01:32:40.901Z,86.71
2022-09-26T01:35:17.580Z,86.47
2022-09-26T01:37:58.912Z,86.27
2022-09-26T01:40:40.140Z,85.85
2022-09-26T01:43:19.554Z,86.02
2022-09-26T01:45:53.591Z,86.32
2022-09-26T01:48:29.482Z,86.49
2022-09-26T01:51:04.060Z,86.86
2022-09-26T01:53:39.985Z,86.94
2022-09-26T01:56:15.614Z,87.08
2022-09-26T01:58:50.994Z,87.15
2022-09-26T02:01:23.365Z,87.19
2022-09-26T02:03:56.199Z,87.26
2022-09-26T02:06:30.903Z,87.18
2022-09-26T02:09:06.749Z,86.62
2022-09-26T02:11:39.217Z,86.15
2022-09-26T02:14:15.139Z,86.26
2022-09-26T02:16:49.336Z,86.64
2022-09-26T02:19:23.505Z,86.92
2022-09-26T02:21:52.733Z,86.57
2022-09-26T02:24:22.118Z,86.69
2022-09-26T02:26:51.406Z,86.86
2022-09-26T02:29:21.480Z,86.81
2022-09-26T02:31:57.239Z,87.16
2022-09-26T02:34:26.683Z,87.69
2022-09-26T02:36:57.180Z,87.89
2022-09-26T02:39:27.697Z,87.94
2022-09-26T02:42:16.916Z,87.40
2022-09-26T02:45:00.753Z,87.47
2022-09-26T02:47:52.097Z,87.66
2022-09-26T02:50:47.768Z,87.86
2022-09-26T02:53:30.943Z,88.03
2022-09-26T02:56:10.949Z,88.11
2022-09-26T02:58:51.216Z,87.81
2022-09-26T03:01:27.624Z,88.00
2022-09-26T03:04:03.016Z,87.60
2022-09-26T03:06:36.551Z,87.85
2022-09-26T03:09:08.741Z,88.44
2022-09-26T03:11:39.504Z,88.22
2022-09-26T03:14:10.854Z,89.03
2022-09-26T03:16:44.122Z,88.46
2022-09-26T03:19:18.992Z,88.42
2022-09-26T03:21:47.962Z,88.52
2022-09-26T03:24:17.116Z,88.43
2022-09-26T03:26:47.482Z,88.82
2022-09-26T03:29:19.311Z,88.67
2022-09-26T03:31:49.753Z,88.80
2022-09-26T03:34:20.056Z,88.40
2022-09-26T03:36:49.395Z,88.53
2022-09-26T03:39:18.754Z,88.13
2022-09-26T03:41:52.248Z,88.39
2022-09-26T03:44:25.050Z,88.41
2022-09-26T03:47:09.614Z,88.54
2022-09-26T03:49:43.903Z,88.51
2022-09-26T03:52:15.560Z,88.65
2022-09-26T03:54:45.282Z,88.94
2022-09-26T03:57:15.326Z,88.94
2022-09-26T03:59:49.329Z,88.92
2022-09-26T04:02:19.321Z,88.96
2022-09-26T04:04:48.838Z,89.11
2022-09-26T04:07:17.411Z,89.17
2022-09-26T04:09:45.894Z,89.13
2022-09-26T04:12:15.343Z,88.92
2022-09-26T04:14:46.244Z,88.78
2022-09-26T04:17:16.611Z,88.77
2022-09-26T04:19:49.167Z,88.90
2022-09-26T04:22:18.432Z,88.97
2022-09-26T04:24:51.313Z,89.05
2022-09-26T04:27:19.915Z,89.09
2022-09-26T04:29:48.703Z,89.12
2022-09-26T04:32:28.912Z,89.17
2022-09-26T04:35:17.668Z,89.02
2022-09-26T04:37:47.090Z,88.83
2022-09-26T04:40:18.300Z,88.87
2022-09-26T04:43:08.703Z,88.98
2022-09-26T04:45:39.897Z,89.10
2022-09-26T04:48:10.944Z,89.18
2022-09-26T04:50:56.479Z,89.22
2022-09-26T04:53:25.540Z,89.17
2022-09-26T04:56:05.202Z,89.23
2022-09-26T04:58:34.297Z,89.37
2022-09-26T05:01:05.160Z,89.48
2022-09-26T05:03:45.114Z,89.43
2022-09-26T05:06:15.505Z,89.50
2022-09-26T05:08:46.501Z,89.50
2022-09-26T05:11:17.874Z,89.56
2022-09-26T05:13:50.085Z,89.59
2022-09-26T05:16:22.101Z,89.37
2022-09-26T05:18:55.451Z,89.72
2022-09-26T05:21:26.154Z,89.69
2022-09-26T05:24:13.449Z,89.61
2022-09-26T05:26:46.467Z,89.81
2022-09-26T05:29:19.012Z,89.88
2022-09-26T05:31:58.455Z,89.85
2022-09-26T05:34:29.294Z,90.04
2022-09-26T05:36:59.655Z,89.74
2022-09-26T05:39:46.895Z,89.85
2022-09-26T05:42:16.813Z,89.89
2022-09-26T05:44:45.366Z,89.31
2022-09-26T05:47:14.292Z,89.72
2022-09-26T05:49:43.360Z,89.75
2022-09-26T05:52:17.168Z,89.93
2022-09-26T05:54:45.708Z,89.97
2022-09-26T05:57:34.944Z,89.93
2022-09-26T06:00:04.051Z,89.82
2022-09-26T06:02:55.784Z,89.99
2022-09-26T06:05:33.070Z,90.10
2022-09-26T06:08:19.012Z,90.01
2022-09-26T06:11:04.465Z,89.45
2022-09-26T06:13:34.229Z,89.89
2022-09-26T06:16:05.679Z,89.83
2022-09-26T06:18:35.004Z,89.90
2022-09-26T06:21:04.023Z,89.90
2022-09-26T06:23:33.781Z,89.87
2022-09-26T06:26:05.032Z,89.54
2022-09-26T06:28:34.701Z,89.23
2022-09-26T06:31:11.499Z,89.38
2022-09-26T06:34:11.589Z,89.72
2022-09-26T06:36:49.475Z,89.73
2022-09-26T06:39:18.286Z,89.81
2022-09-26T06:41:48.674Z,89.60
2022-09-26T06:44:44.653Z,89.18
2022-09-26T06:47:43.158Z,89.47
2022-09-26T06:50:51.955Z,89.00
2022-09-26T06:53:20.671Z,89.28
2022-09-26T06:55:49.645Z,89.43
2022-09-26T06:58:18.848Z,89.28
2022-09-26T07:00:58.609Z,89.47
2022-09-26T07:04:00.846Z,89.65
2022-09-26T07:06:37.843Z,89.62
2022-09-26T07:09:12.262Z,89.71
2022-09-26T07:12:15.919Z,89.77
2022-09-26T07:14:45.771Z,89.72
2022-09-26T07:17:32.032Z,88.98
2022-09-26T07:20:36.614Z,88.53
2022-09-26T07:23:18.272Z,88.69
2022-09-26T07:25:47.770Z,88.86
2022-09-26T07:28:17.540Z,88.02
2022-09-26T07:30:49.420Z,88.11
2022-09-26T07:33:43.193Z,87.54
2022-09-26T07:36:13.154Z,86.58
2022-09-26T07:38:48.814Z,86.08
2022-09-26T07:41:18.916Z,85.64
2022-09-26T07:46:55.054Z,85.69
2022-09-26T07:49:42.385Z,85.83
2022-09-26T07:52:17.978Z,85.61
2022-09-26T07:54:59.478Z,85.35
2022-09-26T07:57:52.372Z,84.12
2022-09-26T08:00:31.078Z,82.12
2022-09-26T08:03:20.412Z,80.47
2022-09-26T08:05:49.775Z,78.34
2022-09-26T08:08:21.215Z,74.57
2022-09-26T08:11:04.256Z,71.03
2022-09-26T08:13:52.212Z,65.55
2022-09-26T08:16:43.680Z,58.74
2022-09-26T08:19:16.879Z,56.03
2022-09-26T08:21:46.558Z,50.96
2022-09-26T08:24:15.835Z,50.03
2022-09-26T08:26:44.986Z,51.13
2022-09-26T08:29:19.680Z,54.05
2022-09-26T08:31:51.376Z,56.22
2022-09-26T08:34:25.411Z,59.18
2022-09-26T08:37:13.553Z,61.23
2022-09-26T08:40:02.670Z,63.07
2022-09-26T08:42:59.315Z,64.99
2022-09-26T08:46:13.038Z,65.74
2022-09-26T08:49:14.116Z,66.97
2022-09-26T08:51:48.142Z,66.64
2022-09-26T08:54:19.548Z,66.97
2022-09-26T08:56:54.202Z,67.48
2022-09-26T08:59:29.047Z,65.49
2022-09-26T09:02:04.445Z,62.46
2022-09-26T09:04:53.650Z,57.06
2022-09-26T09:07:25.787Z,55.08
2022-09-26T09:10:00.939Z,53.89
2022-09-26T09:13:02.041Z,52.82
2022-09-26T09:15:57.194Z,53.41
2022-09-26T09:19:06.630Z,54.74
2022-09-26T09:22:07.717Z,55.83
2022-09-26T09:25:00.456Z,53.02
2022-09-26T09:27:52.771Z,53.09
2022-09-26T09:30:26.484Z,53.31
2022-09-26T09:33:03.818Z,52.86
2022-09-26T09:35:43.441Z,53.55
2022-09-26T09:38:30.406Z,53.25
2022-09-26T09:41:26.160Z,52.16
2022-09-26T09:43:58.068Z,51.32
2022-09-26T09:46:34.447Z,51.40
2022-09-26T09:49:22.574Z,51.92
2022-09-26T09:52:04.612Z,53.09
2022-09-26T09:54:50.337Z,52.71
2022-09-26T09:57:48.566Z,53.70
2022-09-26T10:00:22.352Z,52.46
2022-09-26T10:03:01.793Z,53.05
2022-09-26T10:05:42.645Z,53.26
2022-09-26T10:08:16.396Z,53.90
2022-09-26T10:11:14.776Z,54.21
2022-09-26T10:14:02.838Z,53.64
2022-09-26T10:17:19.750Z,52.51
2022-09-26T10:20:34.653Z,53.62
2022-09-26T10:23:19.729Z,54.59
2022-09-26T10:25:50.810Z,54.10
2022-09-26T10:28:30.248Z,54.69
2022-09-26T10:31:09.962Z,54.93
2022-09-26T10:34:02.455Z,54.13
2022-09-26T10:36:34.024Z,53.83
2022-09-26T10:39:35.710Z,54.39
2022-09-26T10:42:13.898Z,53.17
2022-09-26T10:44:42.934Z,51.35
2022-09-26T10:47:26.542Z,52.51
2022-09-26T10:50:18.996Z,52.71
2022-09-26T10:53:09.844Z,52.64
2022-09-26T10:55:43.718Z,53.45
2022-09-26T10:58:22.215Z,53.12
2022-09-26T11:00:53.877Z,52.02
2022-09-26T11:03:32.966Z,51.55
2022-09-26T11:06:32.422Z,52.14
2022-09-26T11:09:06.804Z,52.79
2022-09-26T11:11:55.510Z,51.75
2022-09-26T11:14:28.902Z,51.20
2022-09-26T11:17:07.353Z,52.19
2022-09-26T11:19:44.491Z,52.22
2022-09-26T11:22:25.312Z,51.75
2022-09-26T11:25:04.235Z,51.85
2022-09-26T11:27:43.004Z,50.74
2022-09-26T11:30:21.691Z,51.81
2022-09-26T11:33:00.477Z,52.10
2022-09-26T11:36:25.513Z,50.43
2022-09-26T11:38:57.074Z,51.40
2022-09-26T11:41:45.433Z,50.30
2022-09-26T11:44:29.255Z,50.42
2022-09-26T11:47:51.213Z,49.21
2022-09-26T11:50:48.175Z,48.52
2022-09-26T11:53:49.436Z,49.70
2022-09-26T11:56:33.563Z,51.06
2022-09-26T11:59:06.028Z,52.48
2022-09-26T12:01:46.785Z,50.20
2022-09-26T12:04:42.304Z,51.83
2022-09-26T12:07:21.263Z,51.51
2022-09-26T12:10:17.746Z,51.11
2022-09-26T12:13:00.795Z,51.96
2022-09-26T12:15:37.440Z,51.70
2022-09-26T12:18:15.665Z,51.14
2022-09-26T12:20:57.880Z,51.25
2022-09-26T12:23:33.358Z,51.78
2022-09-26T12:26:13.753Z,51.31
2022-09-26T12:28:57.728Z,51.23
2022-09-26T12:31:52.365Z,51.83
2022-09-26T12:34:44.536Z,53.00
2022-09-26T12:37:33.662Z,53.86
2022-09-26T12:40:17.284Z,54.33
2022-09-26T12:43:13.815Z,54.43
2022-09-26T12:46:00.143Z,53.32
2022-09-26T12:48:46.635Z,53.91
2022-09-26T12:51:28.966Z,52.90
2022-09-26T12:54:17.371Z,53.50
2022-09-26T12:56:53.128Z,53.76
2022-09-26T12:59:39.329Z,53.53
2022-09-26T13:02:36.179Z,54.16
2022-09-26T13:05:30.547Z,54.85
2022-09-26T13:08:05.174Z,55.32
2022-09-26T13:10:44.830Z,53.88
2022-09-26T13:13:45.521Z,54.10
2022-09-26T13:16:33.739Z,53.71
2022-09-26T13:19:11.297Z,53.53
2022-09-26T13:21:44.998Z,54.14
2022-09-26T13:24:18.120Z,54.09
2022-09-26T13:26:53.632Z,52.67
2022-09-26T13:29:28.823Z,53.09
2022-09-26T13:32:17.118Z,53.04
2022-09-26T13:34:53.332Z,53.32
2022-09-26T13:37:38.560Z,53.24
2022-09-26T13:40:21.482Z,54.24
2022-09-26T13:43:03.501Z,54.25
2022-09-26T13:45:50.322Z,54.21
2022-09-26T13:48:29.085Z,54.12
2022-09-26T13:51:09.026Z,53.98
2022-09-26T13:53:46.037Z,54.21
2022-09-26T13:56:48.840Z,54.05
2022-09-26T13:59:51.054Z,54.13
2022-09-26T14:02:28.797Z,54.22
2022-09-26T14:05:46.036Z,54.78
2022-09-26T14:08:51.090Z,55.06
2022-09-26T14:11:43.438Z,56.17
2022-09-26T14:14:38.147Z,56.01
2022-09-26T14:18:01.332Z,57.36
2022-09-26T14:20:37.764Z,57.68
2022-09-26T14:23:37.429Z,58.96
2022-09-26T14:26:10.035Z,59.11
2022-09-26T14:28:40.670Z,60.18
2022-09-26T14:31:42.733Z,60.73
2022-09-26T14:34:26.423Z,60.98
2022-09-26T14:37:04.953Z,61.93
2022-09-26T14:39:40.384Z,62.49
2022-09-26T14:42:28.193Z,62.42
2022-09-26T14:45:01.306Z,63.26
2022-09-26T14:47:38.167Z,61.51
2022-09-26T14:50:14.566Z,62.08
2022-09-26T14:52:53.668Z,63.08
2022-09-26T14:55:23.419Z,63.54
2022-09-26T14:57:52.341Z,62.47
2022-09-26T15:00:39.872Z,63.84
2022-09-26T15:03:16.399Z,62.95
2022-09-26T15:05:46.720Z,63.34
2022-09-26T15:08:26.935Z,64.57
2022-09-26T15:10:57.972Z,65.51
2022-09-26T15:13:38.939Z,66.37
2022-09-26T15:16:32.125Z,67.08
2022-09-26T15:19:09.788Z,67.29
2022-09-26T15:21:42.686Z,68.25
2022-09-26T15:24:30.567Z,68.18
2022-09-26T15:27:03.199Z,68.35
2022-09-26T15:29:34.447Z,67.84
2022-09-26T15:32:03.983Z,68.76
2022-09-26T15:34:35.683Z,69.53
2022-09-26T15:37:15.995Z,69.48
2022-09-26T15:39:44.868Z,69.28
2022-09-26T15:42:46.355Z,68.96
2022-09-26T15:45:49.995Z,70.06
2022-09-26T15:48:28.529Z,70.49
2022-09-26T15:51:05.203Z,71.32
2022-09-26T15:53:39.331Z,71.81
2022-09-26T15:56:11.906Z,71.85
2022-09-26T15:58:46.606Z,72.62
2022-09-26T16:01:18.150Z,72.97
2022-09-26T16:03:55.381Z,73.51
2022-09-26T16:06:30.012Z,73.14
2022-09-26T16:09:06.844Z,73.36
2022-09-26T16:11:47.061Z,73.65
2022-09-26T16:14:29.722Z,73.70
2022-09-26T16:17:09.656Z,74.11
2022-09-26T16:19:45.369Z,74.37
2022-09-26T16:22:45.025Z,74.77
2022-09-26T16:25:52.928Z,74.87
2022-09-26T16:28:44.506Z,75.05
2022-09-26T16:31:36.230Z,75.50
2022-09-26T16:34:24.716Z,75.75
2022-09-26T16:36:55.873Z,75.80
2022-09-26T16:39:26.683Z,75.24
2022-09-26T16:42:02.410Z,74.74
2022-09-26T16:44:45.494Z,74.59
2022-09-26T16:47:34.701Z,74.45
2022-09-26T16:50:20.862Z,75.21
2022-09-26T16:52:49.463Z,74.65
2022-09-26T16:55:21.303Z,74.65
2022-09-26T16:57:54.753Z,74.43
2022-09-26T17:00:43.794Z,74.26
2022-09-26T17:03:24.541Z,73.30
2022-09-26T17:05:55.058Z,73.54
2022-09-26T17:08:24.805Z,74.16
2022-09-26T17:10:55.862Z,74.40
2022-09-26T17:13:27.559Z,74.49
2022-09-26T17:16:03.113Z,75.04
2022-09-26T17:18:34.541Z,75.48
2022-09-26T17:21:04.820Z,76.13
2022-09-26T17:23:41.874Z,76.64
2022-09-26T17:26:23.843Z,75.84
2022-09-26T17:28:54.026Z,76.25
2022-09-26T17:31:24.042Z,76.59
2022-09-26T17:33:54.209Z,75.44
2022-09-26T17:36:26.671Z,75.69
2022-09-26T17:38:58.736Z,75.46
2022-09-26T17:41:29.301Z,75.43
2022-09-26T17:43:59.654Z,76.08
2022-09-26T17:46:31.195Z,75.96
2022-09-26T17:49:04.730Z,75.98
2022-09-26T17:51:36.586Z,75.94
2022-09-26T17:54:07.222Z,76.61
2022-09-26T17:56:36.173Z,77.02
2022-09-26T17:59:11.776Z,77.28
2022-09-26T18:01:48.252Z,76.89
2022-09-26T18:04:18.143Z,76.91
2022-09-26T18:06:48.047Z,77.24
2022-09-26T18:09:20.125Z,77.36
2022-09-26T18:11:55.298Z,77.51
2022-09-26T18:14:24.137Z,77.79
2022-09-26T18:16:52.704Z,78.04
2022-09-26T18:19:23.317Z,78.05
2022-09-26T18:21:54.742Z,78.47
2022-09-26T18:24:27.316Z,78.41
2022-09-26T18:27:03.389Z,78.36
2022-09-26T18:29:36.039Z,78.82
2022-09-26T18:32:14.582Z,78.77
2022-09-26T18:34:43.748Z,79.14
2022-09-26T18:37:13.149Z,79.49
2022-09-26T18:39:41.960Z,79.95
2022-09-26T18:42:17.615Z,80.40
2022-09-26T18:44:46.729Z,80.82
2022-09-26T18:47:17.324Z,81.12
2022-09-26T18:49:46.906Z,81.73
2022-09-26T18:52:18.493Z,81.99
2022-09-26T18:55:08.261Z,82.50
2022-09-26T18:57:56.429Z,82.77
2022-09-26T19:00:26.208Z,82.78
2022-09-26T19:02:56.598Z,83.20
2022-09-26T19:05:31.113Z,83.75
2022-09-26T19:08:02.323Z,84.09
2022-09-26T19:10:32.434Z,84.14
2022-09-26T19:13:02.961Z,83.88
2022-09-26T19:15:34.762Z,83.79
2022-09-26T19:18:03.790Z,83.85
2022-09-26T19:20:32.959Z,83.87
2022-09-26T19:23:01.620Z,83.94
2022-09-26T19:25:30.706Z,84.09
2022-09-26T19:28:00.305Z,84.15
2022-09-26T19:30:30.568Z,84.29
2022-09-26T19:32:59.212Z,84.34
2022-09-26T19:35:30.125Z,84.34
2022-09-26T19:38:00.130Z,84.54
2022-09-26T19:40:29.353Z,84.63
2022-09-26T19:42:58.264Z,84.72
2022-09-26T19:45:32.252Z,84.51
2022-09-26T19:48:04.409Z,84.64
2022-09-26T19:50:35.664Z,84.94
2022-09-26T19:53:14.304Z,84.78
2022-09-26T19:55:43.407Z,84.53
2022-09-26T19:58:16.806Z,84.57
2022-09-26T20:00:50.123Z,84.91
2022-09-26T20:03:20.998Z,84.51
2022-09-26T20:05:50.399Z,84.58
2022-09-26T20:08:21.609Z,84.47
2022-09-26T20:10:51.023Z,84.57
2022-09-26T20:13:20.495Z,84.60
2022-09-26T20:15:50.119Z,84.48
2022-09-26T20:18:22.058Z,84.99
2022-09-26T20:20:53.888Z,85.24
2022-09-26T20:23:25.946Z,84.76
2022-09-26T20:25:56.165Z,85.00
2022-09-26T20:28:24.844Z,85.16
2022-09-26T20:30:56.098Z,84.81
2022-09-26T20:33:26.302Z,84.53
2022-09-26T20:36:02.574Z,84.40
2022-09-26T20:38:39.362Z,84.51
2022-09-26T20:41:13.779Z,84.67
2022-09-26T20:43:47.853Z,84.83
2022-09-26T20:46:21.021Z,84.88
2022-09-26T20:48:50.351Z,85.18
2022-09-26T20:51:24.233Z,85.53
2022-09-26T20:53:53.029Z,85.69
2022-09-26T20:56:23.424Z,85.40
2022-09-26T20:58:52.136Z,85.31
2022-09-26T21:01:22.974Z,85.53
2022-09-26T21:03:54.643Z,85.47
2022-09-26T21:06:28.277Z,85.56
2022-09-26T21:08:57.023Z,85.83
2022-09-26T21:11:26.499Z,86.29
2022-09-26T21:13:56.781Z,86.61
2022-09-26T21:16:41.774Z,86.28
2022-09-26T21:19:22.811Z,86.50
2022-09-26T21:21:54.037Z,85.95
2022-09-26T21:24:37.669Z,86.45
2022-09-26T21:27:11.099Z,86.70
2022-09-26T21:29:39.921Z,86.81
2022-09-26T21:32:14.104Z,87.04
2022-09-26T21:34:43.721Z,87.33
2022-09-26T21:37:12.295Z,87.45
2022-09-26T21:39:40.794Z,87.57
2022-09-26T21:42:09.777Z,87.59
2022-09-26T21:44:42.743Z,87.47
2022-09-26T21:47:11.938Z,87.42
2022-09-26T21:49:40.429Z,87.42
2022-09-26T21:52:14.807Z,87.31
2022-09-26T21:54:45.361Z,87.34
2022-09-26T21:57:18.413Z,87.15
2022-09-26T21:59:51.466Z,87.26
2022-09-26T22:02:21.264Z,87.51
2022-09-26T22:04:52.431Z,87.45
2022-09-26T22:07:21.462Z,87.30
2022-09-26T22:09:49.980Z,87.40
2022-09-26T22:12:19.925Z,87.64
2022-09-26T22:14:48.571Z,87.88
2022-09-26T22:17:21.929Z,87.93
2022-09-26T22:19:52.610Z,88.06
2022-09-26T22:22:24.093Z,88.13
2022-09-26T22:24:53.472Z,88.26
2022-09-26T22:27:22.472Z,88.39
2022-09-26T22:29:51.194Z,88.54
2022-09-26T22:32:20.791Z,88.56
2022-09-26T22:34:49.311Z,88.53
2022-09-26T22:37:18.170Z,88.78
2022-09-26T22:39:47.717Z,88.86
2022-09-26T22:42:16.359Z,88.99
2022-09-26T22:44:45.267Z,89.16
2022-09-26T22:47:19.737Z,89.33
2022-09-26T22:49:49.349Z,89.82
2022-09-26T22:52:18.068Z,89.88
2022-09-26T22:54:47.881Z,89.95
2022-09-26T22:57:17.197Z,90.10
2022-09-26T22:59:45.629Z,89.89
2022-09-26T23:02:15.975Z,90.03
2022-09-26T23:04:47.611Z,90.23
2022-09-26T23:07:17.736Z,90.50
2022-09-26T23:09:46.205Z,90.45
2022-09-26T23:12:14.908Z,90.52
2022-09-26T23:14:43.389Z,90.48
2022-09-26T23:17:16.253Z,90.52
2022-09-26T23:19:45.199Z,90.62
2022-09-26T23:22:14.769Z,90.69
2022-09-26T23:24:43.501Z,90.85
2022-09-26T23:27:13.113Z,90.90
2022-09-26T23:29:41.780Z,90.76
2022-09-26T23:32:13.920Z,90.72
2022-09-26T23:34:42.695Z,90.60
2022-09-26T23:37:13.396Z,90.58
2022-09-26T23:39:42.064Z,90.51
2022-09-26T23:42:13.922Z,90.39
2022-09-26T23:44:42.495Z,90.42
2022-09-26T23:47:15.047Z,90.55
2022-09-26T23:49:43.629Z,90.45
2022-09-26T23:52:14.262Z,90.45
2022-09-26T23:54:42.766Z,90.39
2022-09-26T23:57:13.481Z,90.56
2022-09-26T23:59:41.901Z,90.63
